CG George Cobb — NTVY — position and weather

sailwx.info

Track history (hours):
 
Tides and Currents Weather Stations Pressure Air Temp Water Temp Dewpoint Dewpoint Depression Visibility Wind Speed Wind Dir Waves Ship Positions

CG George Cobb

Last reported at 2017-Oct-19 08:04 UTC. Time now 2017-Oct-19 11:12 UTC.
Position N 33°43' W 118°16'.

Length 53 m; draft 2.7 m.

Type: Military. MMSI: 338921000.

Date/timePositionNaut miles runAvg speedWind from/ knotsBaromVisibWave heightAir tempDewpointWater temp
2017-Oct-19 08:04N 33°43' W 118°16'0 0.0
2017-Oct-19 03:10N 33°43' W 118°16'0 0.0
2017-Oct-19 02:46N 33°43' W 118°16'0 0.0
2017-Oct-19 02:28N 33°43' W 118°16'0 0.0
2017-Oct-19 01:58N 33°43' W 118°16'0 0.0
2017-Oct-19 01:22N 33°43' W 118°16'0 0.0
2017-Oct-19 00:58N 33°43' W 118°16'0 0.0
2017-Oct-19 00:28N 33°43' W 118°16'0 0.0
2017-Oct-18 23:58N 33°43' W 118°16'0 0.0
2017-Oct-18 23:28N 33°43' W 118°16'0 0.0
2017-Oct-18 22:58N 33°43' W 118°16'0 0.0
2017-Oct-18 22:28N 33°43' W 118°16'0 0.0
2017-Oct-18 21:58N 33°43' W 118°16'0 0.0
2017-Oct-18 21:28N 33°43' W 118°16'0 0.0
2017-Oct-18 20:09N 33°43' W 118°16'0 0.0
2017-Oct-18 19:57N 33°43' W 118°16'0 0.0
2017-Oct-18 19:28N 33°43' W 118°16'0 0.0
2017-Oct-18 18:58N 33°43' W 118°16'0 0.0
2017-Oct-18 18:28N 33°43' W 118°16'0 0.0
2017-Oct-18 17:58N 33°43' W 118°16'0 0.0
2017-Oct-18 17:22N 33°43' W 118°16'0 0.0
2017-Oct-18 16:34N 33°43' W 118°16'0 0.0
2017-Oct-18 16:22N 33°43' W 118°16'0 0.0
2017-Oct-18 15:15N 33°43' W 118°16'1 3.6
2017-Oct-18 14:59N 33°43' W 118°15'9 6.1
2017-Oct-18 13:34N 33°37' W 118°23'1 8.6
2017-Oct-18 13:30N 33°38' W 118°24'11 8.1
2017-Oct-18 12:12N 33°43' W 118°35'2 8.0
2017-Oct-18 11:59N 33°44' W 118°37'4 8.0
2017-Oct-18 11:30N 33°46' W 118°41'4 7.9
2017-Oct-18 10:58N 33°48' W 118°45'4 7.9
2017-Oct-18 10:30N 33°50' W 118°49'4 8.1
2017-Oct-18 10:00N 33°52' W 118°53'4 8.1
2017-Oct-18 09:30N 33°53' W 118°58'4 8.2
2017-Oct-18 08:58N 33°56' W 119°02'4 8.2
2017-Oct-18 08:27N 33°58' W 119°06'4 8.1
2017-Oct-18 08:00N 33°60' W 119°10'4 8.3
2017-Oct-18 07:30N 34°02' W 119°15'5 9.2
2017-Oct-18 06:57N 34°03' W 119°21'4 9.3
2017-Oct-18 06:30N 34°04' W 119°25'5 9.4
2017-Oct-18 05:58N 34°06' W 119°31'510.0
2017-Oct-18 05:29N 34°07' W 119°37'510.8
2017-Oct-18 05:00N 34°08' W 119°43'611.4
2017-Oct-18 04:30N 34°10' W 119°50'611.3
2017-Oct-18 04:00N 34°12' W 119°56'511.0
2017-Oct-18 03:30N 34°13' W 120°02'611.0
2017-Oct-18 02:59N 34°15' W 120°09'511.1
2017-Oct-18 02:31N 34°16' W 120°15'611.2
2017-Oct-18 02:00N 34°17' W 120°22'611.2
2017-Oct-18 01:31N 34°19' W 120°28'510.9
2017-Oct-18 01:00N 34°20' W 120°35'510.4
2017-Oct-18 00:31N 34°22' W 120°41'510.4
2017-Oct-18 00:00N 34°23' W 120°47'510.6
2017-Oct-17 23:30N 34°25' W 120°53'510.4
2017-Oct-17 23:00N 34°28' W 120°58'612.2
2017-Oct-17 22:30N 34°34' W 121°00'611.8
2017-Oct-17 22:00N 34°39' W 121°03'611.3
2017-Oct-17 21:30N 34°45' W 121°05'611.4
2017-Oct-17 21:00N 34°50' W 121°07'611.2
2017-Oct-17 20:30N 34°55' W 121°10'611.6
2017-Oct-17 20:00N 35°01' W 121°12'611.5
2017-Oct-17 19:30N 35°06' W 121°15'611.2
2017-Oct-17 19:00N 35°11' W 121°17'611.4
2017-Oct-17 18:30N 35°17' W 121°20'611.3
2017-Oct-17 18:00N 35°22' W 121°22'611.2
2017-Oct-17 17:26N 35°27' W 121°27'2510.0
2017-Oct-17 14:53N 35°49' W 121°43'410.6
2017-Oct-17 14:30N 35°52' W 121°46'611.0
2017-Oct-17 13:59N 35°56' W 121°51'7811.0
2017-Oct-17 06:54N 37°06' W 122°35'411.1
2017-Oct-17 06:30N 37°09' W 122°39'510.5
2017-Oct-17 06:00N 37°13' W 122°43'610.9
2017-Oct-17 05:30N 37°19' W 122°44'611.2
2017-Oct-17 05:01N 37°24' W 122°44'611.4
2017-Oct-17 04:31N 37°30' W 122°44'611.3
2017-Oct-17 04:00N 37°36' W 122°44'611.3
2017-Oct-17 03:31N 37°41' W 122°43'5 9.6
2017-Oct-17 03:01N 37°45' W 122°39'510.0
2017-Oct-17 02:30N 37°47' W 122°33'4 9.0
2017-Oct-17 02:00N 37°49' W 122°28'4 8.0
2017-Oct-17 01:31N 37°49' W 122°23'2 2.9
2017-Oct-17 01:00N 37°49' W 122°22'0 0.0
2017-Oct-17 00:30N 37°49' W 122°22'0 0.0
2017-Oct-17 00:00N 37°49' W 122°22'0 0.0
2017-Oct-16 23:30N 37°49' W 122°22'0 0.0
2017-Oct-16 22:59N 37°49' W 122°22'0 0.0
2017-Oct-16 22:29N 37°49' W 122°22'0 0.0
2017-Oct-16 21:58N 37°49' W 122°22'0 0.0
2017-Oct-16 21:28N 37°49' W 122°22'0 0.0
2017-Oct-16 21:00N 37°49' W 122°22'0 0.0
2017-Oct-16 20:30N 37°49' W 122°22'0 0.0
2017-Oct-16 19:59N 37°49' W 122°22'0 0.0
2017-Oct-16 19:29N 37°49' W 122°22'0 0.0
2017-Oct-16 18:58N 37°49' W 122°22'0 0.0
2017-Oct-16 18:25N 37°49' W 122°22'0 0.0
2017-Oct-16 17:55N 37°49' W 122°22'0 0.0
2017-Oct-16 17:25N 37°49' W 122°22'0 0.0
2017-Oct-16 16:58N 37°49' W 122°22'0 0.0
2017-Oct-16 16:28N 37°49' W 122°22'0 0.0
2017-Oct-16 15:52N 37°49' W 122°22'0 0.0
2017-Oct-16 15:28N 37°49' W 122°22'0 0.0
2017-Oct-16 14:58N 37°49' W 122°22'0 0.0
2017-Oct-16 14:28N 37°49' W 122°22'0 0.0
2017-Oct-16 13:28N 37°49' W 122°22'0 0.0
2017-Oct-16 12:58N 37°49' W 122°22'0 0.0
2017-Oct-16 12:28N 37°49' W 122°22'0 0.0
2017-Oct-16 11:58N 37°49' W 122°22'0 0.0
2017-Oct-16 11:28N 37°49' W 122°22'0 0.0
2017-Oct-16 10:58N 37°49' W 122°22'0 0.0
2017-Oct-16 10:31N 37°49' W 122°22'0 0.0
2017-Oct-16 09:55N 37°49' W 122°22'0 0.0
2017-Oct-16 09:28N 37°49' W 122°22'0 0.0
2017-Oct-16 08:58N 37°49' W 122°22'0 0.0
2017-Oct-16 08:28N 37°49' W 122°22'0 0.0
2017-Oct-16 07:58N 37°49' W 122°22'0 0.0
2017-Oct-16 07:28N 37°49' W 122°22'0 0.0
2017-Oct-16 06:58N 37°49' W 122°22'0 0.0
2017-Oct-16 06:28N 37°49' W 122°22'0 0.0
2017-Oct-16 05:58N 37°49' W 122°22'0 0.0
2017-Oct-16 05:28N 37°49' W 122°22'0 0.0
2017-Oct-16 04:58N 37°49' W 122°22'0 0.0
2017-Oct-16 04:28N 37°49' W 122°22'0 0.0
2017-Oct-16 03:58N 37°49' W 122°22'0 0.0
2017-Oct-16 03:28N 37°49' W 122°22'0 0.0
2017-Oct-16 02:58N 37°49' W 122°22'0 0.0
2017-Oct-16 02:28N 37°49' W 122°22'0 0.0
2017-Oct-16 01:58N 37°49' W 122°22'0 0.0
2017-Oct-16 01:25N 37°49' W 122°22'0 0.0
2017-Oct-16 00:58N 37°49' W 122°22'0 0.0
2017-Oct-16 00:28N 37°49' W 122°22'0 0.0
2017-Oct-15 23:56N 37°49' W 122°22'0 0.0
2017-Oct-15 23:28N 37°49' W 122°22'0 0.0
2017-Oct-15 22:58N 37°49' W 122°22'0 0.0
2017-Oct-15 22:25N 37°49' W 122°22'0 0.0
2017-Oct-15 21:58N 37°49' W 122°22'0 0.0
2017-Oct-15 21:28N 37°49' W 122°22'0 0.0
2017-Oct-15 20:58N 37°49' W 122°22'0 0.0
2017-Oct-15 20:28N 37°49' W 122°22'0 0.0
2017-Oct-15 19:52N 37°49' W 122°22'0 0.0
2017-Oct-15 19:22N 37°49' W 122°22'0 0.0
2017-Oct-15 18:58N 37°49' W 122°22'0 0.0
2017-Oct-15 18:28N 37°49' W 122°22'0 0.0
2017-Oct-15 17:58N 37°49' W 122°22'0 0.0
2017-Oct-15 17:28N 37°49' W 122°22'0 0.0
2017-Oct-15 16:55N 37°49' W 122°22'0 0.0
2017-Oct-15 16:28N 37°49' W 122°22'0 0.0
2017-Oct-15 15:58N 37°49' W 122°22'0 0.0
2017-Oct-15 15:19N 37°49' W 122°22'0 0.0
2017-Oct-15 14:58N 37°49' W 122°22'0 0.0
2017-Oct-15 13:49N 37°49' W 122°22'0 0.0
2017-Oct-15 13:28N 37°49' W 122°22'0 0.0
2017-Oct-15 12:56N 37°49' W 122°22'0 0.0
2017-Oct-15 12:28N 37°49' W 122°22'0 0.0
2017-Oct-15 11:58N 37°49' W 122°22'0 0.0
2017-Oct-15 11:28N 37°49' W 122°22'0 0.0
2017-Oct-15 10:55N 37°49' W 122°22'0 0.0
2017-Oct-15 10:28N 37°49' W 122°22'0 0.0
2017-Oct-15 09:49N 37°49' W 122°22'0 0.0
2017-Oct-15 09:22N 37°49' W 122°22'0 0.0
2017-Oct-15 08:58N 37°49' W 122°22'0 0.0
2017-Oct-15 08:28N 37°49' W 122°22'0 0.0
2017-Oct-15 07:58N 37°49' W 122°22'0 0.0
2017-Oct-15 07:28N 37°49' W 122°22'0 0.0
2017-Oct-15 06:58N 37°49' W 122°22'0 0.0
2017-Oct-15 06:29N 37°49' W 122°22'0 0.0
2017-Oct-15 05:58N 37°49' W 122°22'0 0.0
2017-Oct-15 05:28N 37°49' W 122°22'0 0.0
2017-Oct-15 04:58N 37°49' W 122°22'0 0.0
2017-Oct-15 04:28N 37°49' W 122°22'0 0.0
2017-Oct-15 03:58N 37°49' W 122°22'0 0.0
2017-Oct-15 03:28N 37°49' W 122°22'0 0.0
2017-Oct-15 02:56N 37°49' W 122°22'0 0.0
2017-Oct-15 02:28N 37°49' W 122°22'0 0.0
2017-Oct-15 01:58N 37°49' W 122°22'0 0.0
2017-Oct-15 01:28N 37°49' W 122°22'0 0.0
2017-Oct-15 00:58N 37°49' W 122°22'0 0.0
2017-Oct-15 00:28N 37°49' W 122°22'0 0.0
2017-Oct-14 23:52N 37°49' W 122°22'0 0.0
2017-Oct-14 23:28N 37°49' W 122°22'0 0.0
2017-Oct-14 22:58N 37°49' W 122°22'0 0.0
2017-Oct-14 22:28N 37°49' W 122°22'0 0.0
2017-Oct-14 21:59N 37°49' W 122°22'0 0.0
2017-Oct-14 21:28N 37°49' W 122°22'0 0.0
2017-Oct-14 20:58N 37°49' W 122°22'0 0.0
2017-Oct-14 20:28N 37°49' W 122°22'0 0.0
2017-Oct-14 19:58N 37°49' W 122°22'0 0.0
2017-Oct-14 19:25N 37°49' W 122°22'0 0.0
2017-Oct-14 18:58N 37°49' W 122°22'0 0.0
2017-Oct-14 18:28N 37°49' W 122°22'0 0.0
2017-Oct-14 17:58N 37°49' W 122°22'0 0.0
2017-Oct-14 17:28N 37°49' W 122°22'0 0.0
2017-Oct-14 16:58N 37°49' W 122°22'0 0.0
2017-Oct-14 16:25N 37°49' W 122°22'0 0.0
2017-Oct-14 15:52N 37°49' W 122°22'0 0.0
2017-Oct-14 15:25N 37°49' W 122°22'0 0.0
2017-Oct-14 14:59N 37°49' W 122°22'0 0.0
2017-Oct-14 14:29N 37°49' W 122°22'0 0.0
2017-Oct-14 13:58N 37°49' W 122°22'0 0.0
2017-Oct-14 13:25N 37°49' W 122°22'0 0.0
2017-Oct-14 12:58N 37°49' W 122°22'0 0.0
2017-Oct-14 12:28N 37°49' W 122°22'0 0.0
2017-Oct-14 11:58N 37°49' W 122°22'0 0.0
2017-Oct-14 11:28N 37°49' W 122°22'0 0.0
2017-Oct-14 10:55N 37°49' W 122°22'0 0.0
2017-Oct-14 10:28N 37°49' W 122°22'0 0.0
2017-Oct-14 09:55N 37°49' W 122°22'0 0.0
2017-Oct-14 09:28N 37°49' W 122°22'0 0.0
2017-Oct-14 08:58N 37°49' W 122°22'0 0.0
2017-Oct-14 08:28N 37°49' W 122°22'0 0.0
2017-Oct-14 07:58N 37°49' W 122°22'0 0.0
2017-Oct-14 07:28N 37°49' W 122°22'0 0.0
2017-Oct-14 06:58N 37°49' W 122°22'0 0.0
2017-Oct-14 06:28N 37°49' W 122°22'0 0.0
2017-Oct-14 05:58N 37°49' W 122°22'0 0.0
2017-Oct-14 05:28N 37°49' W 122°22'0 0.0
2017-Oct-14 04:58N 37°49' W 122°22'0 0.0
2017-Oct-14 04:28N 37°49' W 122°22'0 0.0
2017-Oct-14 03:55N 37°49' W 122°22'0 0.0
2017-Oct-14 03:22N 37°49' W 122°22'0 0.0
2017-Oct-14 02:58N 37°49' W 122°22'0 0.0
2017-Oct-14 02:28N 37°49' W 122°22'0 0.0
2017-Oct-14 01:58N 37°49' W 122°22'0 0.0
2017-Oct-14 01:28N 37°49' W 122°22'0 0.0
2017-Oct-14 00:58N 37°49' W 122°22'0 0.0
2017-Oct-14 00:29N 37°49' W 122°22'0 0.0
2017-Oct-13 23:59N 37°49' W 122°22'0 0.0
2017-Oct-13 23:20N 37°49' W 122°22'0 0.0
2017-Oct-13 22:59N 37°49' W 122°22'0 0.0
2017-Oct-13 22:28N 37°49' W 122°22'0 0.0
2017-Oct-13 21:58N 37°49' W 122°22'0 0.0
2017-Oct-13 21:25N 37°49' W 122°22'0 0.0
2017-Oct-13 20:55N 37°49' W 122°22'0 0.0
2017-Oct-13 20:28N 37°49' W 122°22'0 0.0
2017-Oct-13 19:58N 37°49' W 122°22'0 0.0
2017-Oct-13 19:28N 37°49' W 122°22'0 0.0
2017-Oct-13 18:55N 37°49' W 122°22'0 0.0
2017-Oct-13 18:28N 37°49' W 122°22'0 0.0
2017-Oct-13 17:58N 37°49' W 122°22'0 0.0
2017-Oct-13 17:25N 37°49' W 122°22'0 0.0
2017-Oct-13 16:58N 37°49' W 122°22'0 0.0
2017-Oct-13 16:25N 37°49' W 122°22'0 0.0
2017-Oct-13 15:58N 37°49' W 122°22'0 0.0
2017-Oct-13 15:29N 37°49' W 122°22'0 0.0
2017-Oct-13 14:56N 37°49' W 122°22'0 0.0
2017-Oct-13 14:26N 37°49' W 122°22'0 0.0
2017-Oct-13 13:59N 37°49' W 122°22'0 0.0
2017-Oct-13 13:19N 37°49' W 122°22'0 0.0
2017-Oct-13 12:58N 37°49' W 122°22'0 0.0
2017-Oct-13 12:28N 37°49' W 122°22'0 0.0
2017-Oct-13 11:58N 37°49' W 122°22'0 0.0
2017-Oct-13 11:28N 37°49' W 122°22'0 0.0
2017-Oct-13 10:58N 37°49' W 122°22'0 0.0
2017-Oct-13 10:28N 37°49' W 122°22'0 0.0
2017-Oct-13 09:58N 37°49' W 122°22'0 0.0
2017-Oct-13 09:28N 37°49' W 122°22'0 0.0
2017-Oct-13 08:58N 37°49' W 122°22'0 0.0
2017-Oct-13 08:22N 37°49' W 122°22'0 0.0
2017-Oct-13 07:58N 37°49' W 122°22'0 0.0
2017-Oct-13 07:28N 37°49' W 122°22'0 0.0
2017-Oct-13 06:58N 37°49' W 122°22'0 0.0
2017-Oct-13 06:28N 37°49' W 122°22'0 0.0
2017-Oct-13 05:59N 37°49' W 122°22'0 0.0
2017-Oct-13 05:29N 37°49' W 122°22'0 0.0
2017-Oct-13 04:55N 37°49' W 122°22'0 0.0
2017-Oct-13 04:28N 37°49' W 122°22'0 0.0
2017-Oct-13 03:58N 37°49' W 122°22'0 0.0
2017-Oct-13 03:28N 37°49' W 122°22'0 0.0
2017-Oct-13 02:55N 37°49' W 122°22'0 0.0
2017-Oct-13 02:28N 37°49' W 122°22'0 0.0
2017-Oct-13 01:58N 37°49' W 122°22'0 0.0
2017-Oct-13 01:28N 37°49' W 122°22'0 0.0
2017-Oct-13 00:58N 37°49' W 122°22'0 0.0
2017-Oct-13 00:28N 37°49' W 122°22'0 0.0
2017-Oct-12 23:58N 37°49' W 122°22'0 0.0
2017-Oct-12 23:28N 37°49' W 122°22'0 0.0
2017-Oct-12 22:52N 37°49' W 122°22'0 0.0
2017-Oct-12 22:28N 37°49' W 122°22'0 0.0
2017-Oct-12 21:56N 37°49' W 122°22'0 0.0
2017-Oct-12 21:20N 37°49' W 122°22'0 0.0
2017-Oct-12 20:59N 37°49' W 122°22'0 0.0
2017-Oct-12 20:29N 37°49' W 122°22'0 0.0
2017-Oct-12 19:58N 37°49' W 122°22'0 0.0
2017-Oct-12 19:28N 37°49' W 122°22'0 0.0
2017-Oct-12 18:58N 37°49' W 122°22'0 0.0
2017-Oct-12 18:28N 37°49' W 122°22'0 0.0
2017-Oct-12 17:58N 37°49' W 122°22'0 0.0
2017-Oct-12 17:28N 37°49' W 122°22'0 0.0
2017-Oct-12 16:58N 37°49' W 122°22'0 0.0
2017-Oct-12 16:27N 37°49' W 122°22'0 0.0
2017-Oct-12 15:57N 37°49' W 122°22'0 0.0
2017-Oct-12 15:21N 37°49' W 122°22'0 0.0
2017-Oct-12 14:59N 37°49' W 122°22'0 0.0
2017-Oct-12 14:29N 37°49' W 122°22'0 0.0
2017-Oct-12 13:59N 37°49' W 122°22'0 0.0
2017-Oct-12 13:29N 37°49' W 122°22'0 0.0
2017-Oct-12 12:59N 37°49' W 122°22'0 0.0
2017-Oct-12 12:29N 37°49' W 122°22'0 0.0
2017-Oct-12 12:00N 37°49' W 122°22'0 0.0
2017-Oct-12 11:30N 37°49' W 122°22'0 0.0
2017-Oct-12 11:00N 37°49' W 122°22'0 0.0
2017-Oct-12 10:30N 37°49' W 122°22'0 0.0
2017-Oct-12 10:00N 37°49' W 122°22'0 0.0
2017-Oct-12 09:30N 37°49' W 122°22'0 0.0
2017-Oct-12 08:59N 37°49' W 122°22'0 0.0
2017-Oct-12 08:29N 37°49' W 122°22'0 0.0
2017-Oct-12 07:59N 37°49' W 122°22'0 0.0
2017-Oct-12 07:29N 37°49' W 122°22'0 0.0
2017-Oct-12 06:59N 37°49' W 122°22'0 0.0
2017-Oct-12 06:29N 37°49' W 122°22'0 0.0
2017-Oct-12 05:59N 37°49' W 122°22'0 0.0
2017-Oct-12 05:29N 37°49' W 122°22'0 0.0
2017-Oct-12 04:56N 37°49' W 122°22'0 0.0
2017-Oct-12 04:29N 37°49' W 122°22'0 0.0
2017-Oct-12 03:59N 37°49' W 122°22'0 0.0
2017-Oct-12 03:26N 37°49' W 122°22'0 0.0
2017-Oct-12 03:00N 37°49' W 122°22'0 0.0
2017-Oct-12 02:24N 37°49' W 122°22'0 0.0
2017-Oct-12 02:00N 37°49' W 122°22'0 0.0
2017-Oct-12 01:30N 37°49' W 122°22'0 0.0
2017-Oct-12 01:00N 37°49' W 122°22'0 0.0
2017-Oct-12 00:30N 37°49' W 122°22'0 0.0
2017-Oct-12 00:00N 37°49' W 122°22'0 0.0
2017-Oct-11 23:30N 37°49' W 122°22'0 0.0
2017-Oct-11 23:00N 37°49' W 122°22'0 0.0
2017-Oct-11 22:29N 37°49' W 122°22'0 0.0
2017-Oct-11 21:59N 37°49' W 122°22'1 1.9
2017-Oct-11 21:31N 37°49' W 122°22'510.8
2017-Oct-11 21:01N 37°54' W 122°26'5 9.9
2017-Oct-11 20:30N 37°59' W 122°26'3 5.0
2017-Oct-11 20:00N 38°01' W 122°24'0 0.0
2017-Oct-11 19:30N 38°01' W 122°24'0 0.5
2017-Oct-11 19:00N 38°01' W 122°24'2 3.4
2017-Oct-11 18:30N 38°02' W 122°22'0 0.0
2017-Oct-11 18:00N 38°02' W 122°22'0 0.0
2017-Oct-11 17:30N 38°02' W 122°22'2 3.5
2017-Oct-11 16:59N 38°01' W 122°24'12 0.7
2017-Oct-11 00:00N 37°49' W 122°22'0 0.0
2017-Oct-10 23:18N 37°49' W 122°22'0 0.0
2017-Oct-10 23:00N 37°49' W 122°22'0 0.0
2017-Oct-10 22:30N 37°49' W 122°22'0 0.0
2017-Oct-10 21:57N 37°49' W 122°22'0 0.0
2017-Oct-10 21:30N 37°49' W 122°22'0 0.0
2017-Oct-10 20:58N 37°49' W 122°22'0 0.0
2017-Oct-10 20:30N 37°49' W 122°22'0 0.0
2017-Oct-10 20:00N 37°49' W 122°22'0 0.0
2017-Oct-10 19:28N 37°49' W 122°22'0 0.0
2017-Oct-10 18:58N 37°49' W 122°22'0 0.0
2017-Oct-10 18:28N 37°49' W 122°22'0 0.0
2017-Oct-10 17:52N 37°49' W 122°22'0 0.0
2017-Oct-10 17:25N 37°49' W 122°22'0 0.0
2017-Oct-10 16:49N 37°49' W 122°22'0 0.0
2017-Oct-10 16:28N 37°49' W 122°22'0 0.0
2017-Oct-10 15:58N 37°49' W 122°22'0 0.0
2017-Oct-10 15:30N 37°49' W 122°22'0 0.0
2017-Oct-10 15:00N 37°49' W 122°22'0 0.0
2017-Oct-10 14:00N 37°49' W 122°22'0 0.0
2017-Oct-10 13:24N 37°49' W 122°22'0 0.0
2017-Oct-10 13:00N 37°49' W 122°22'0 0.0
2017-Oct-10 12:27N 37°49' W 122°22'0 0.0
2017-Oct-10 11:57N 37°49' W 122°22'0 0.0
2017-Oct-10 11:27N 37°49' W 122°22'0 0.0
2017-Oct-10 10:58N 37°49' W 122°22'0 0.0
2017-Oct-10 10:28N 37°49' W 122°22'0 0.0
2017-Oct-10 09:58N 37°49' W 122°22'0 0.0
2017-Oct-10 09:28N 37°49' W 122°22'0 0.0
2017-Oct-10 08:55N 37°49' W 122°22'0 0.0
2017-Oct-10 08:28N 37°49' W 122°22'0 0.0
2017-Oct-10 07:55N 37°49' W 122°22'0 0.0
2017-Oct-10 07:28N 37°49' W 122°22'0 0.0
2017-Oct-10 06:58N 37°49' W 122°22'0 0.0
2017-Oct-10 06:30N 37°49' W 122°22'0 0.0
2017-Oct-10 05:58N 37°49' W 122°22'0 0.0
2017-Oct-10 05:30N 37°49' W 122°22'0 0.0
2017-Oct-10 04:58N 37°49' W 122°22'0 0.0
2017-Oct-10 04:30N 37°49' W 122°22'0 0.0
2017-Oct-10 03:54N 37°49' W 122°22'0 0.0
2017-Oct-10 03:30N 37°49' W 122°22'0 0.0
2017-Oct-10 02:58N 37°49' W 122°22'0 0.0
2017-Oct-10 02:30N 37°49' W 122°22'0 0.0
2017-Oct-10 01:55N 37°49' W 122°22'0 0.0
2017-Oct-10 01:27N 37°49' W 122°22'0 0.0
2017-Oct-10 00:57N 37°49' W 122°22'0 0.0
2017-Oct-10 00:27N 37°49' W 122°22'0 0.0
2017-Oct-09 23:55N 37°49' W 122°22'0 0.0
2017-Oct-09 23:25N 37°49' W 122°22'0 0.0
2017-Oct-09 22:55N 37°49' W 122°22'0 0.0
2017-Oct-09 22:28N 37°49' W 122°22'0 0.0
2017-Oct-09 21:52N 37°49' W 122°22'0 0.0
2017-Oct-09 21:28N 37°49' W 122°22'0 0.2
2017-Oct-09 21:00N 37°49' W 122°22'3 6.4
2017-Oct-09 20:30N 37°49' W 122°26'0 0.0
2017-Oct-09 20:01N 37°49' W 122°26'0 0.9
2017-Oct-09 19:30N 37°49' W 122°26'1 1.1
2017-Oct-09 19:00N 37°49' W 122°27'0 1.0
2017-Oct-09 18:30N 37°49' W 122°27'0 0.0
2017-Oct-09 18:00N 37°49' W 122°27'2 4.0
2017-Oct-09 17:30N 37°49' W 122°24'0 0.0
2017-Oct-09 17:00N 37°49' W 122°24'1 1.0
2017-Oct-09 16:30N 37°49' W 122°24'0 0.0
2017-Oct-09 16:00N 37°49' W 122°24'0 0.3
2017-Oct-09 15:31N 37°49' W 122°24'2 3.9
2017-Oct-09 14:58N 37°49' W 122°22'0 0.0
2017-Oct-09 14:30N 37°49' W 122°22'0 0.0
2017-Oct-09 14:00N 37°49' W 122°22'0 0.0
2017-Oct-09 13:27N 37°49' W 122°22'0 0.0
2017-Oct-09 12:57N 37°49' W 122°22'0 0.0
2017-Oct-09 12:27N 37°49' W 122°22'0 0.0
2017-Oct-09 11:57N 37°49' W 122°22'0 0.0
2017-Oct-09 11:27N 37°49' W 122°22'0 0.0
2017-Oct-09 10:57N 37°49' W 122°22'0 0.0
2017-Oct-09 10:28N 37°49' W 122°22'0 0.0
2017-Oct-09 09:58N 37°49' W 122°22'0 0.0
2017-Oct-09 09:28N 37°49' W 122°22'0 0.0
2017-Oct-09 08:58N 37°49' W 122°22'0 0.0
2017-Oct-09 08:30N 37°49' W 122°22'  
Track history (hours):
 
Tides and Currents Weather Stations Pressure Air Temp Water Temp Dewpoint Dewpoint Depression Visibility Wind Speed Wind Dir Waves Ship Positions

CG George Cobb

Last reported at 2017-Oct-19 08:04 UTC. Time now 2017-Oct-19 11:12 UTC.
Position N 33°43' W 118°16'.

Length 53 m; draft 2.7 m.

Type: Military. MMSI: 338921000.

Date/timePositionNaut miles runAvg speedWind from/ knotsBaromVisibWave heightAir tempDewpointWater temp
2017-Oct-19 08:04N 33°43' W 118°16'0 0.0
2017-Oct-19 03:10N 33°43' W 118°16'0 0.0
2017-Oct-19 02:46N 33°43' W 118°16'0 0.0
2017-Oct-19 02:28N 33°43' W 118°16'0 0.0
2017-Oct-19 01:58N 33°43' W 118°16'0 0.0
2017-Oct-19 01:22N 33°43' W 118°16'0 0.0
2017-Oct-19 00:58N 33°43' W 118°16'0 0.0
2017-Oct-19 00:28N 33°43' W 118°16'0 0.0
2017-Oct-18 23:58N 33°43' W 118°16'0 0.0
2017-Oct-18 23:28N 33°43' W 118°16'0 0.0
2017-Oct-18 22:58N 33°43' W 118°16'0 0.0
2017-Oct-18 22:28N 33°43' W 118°16'0 0.0
2017-Oct-18 21:58N 33°43' W 118°16'0 0.0
2017-Oct-18 21:28N 33°43' W 118°16'0 0.0
2017-Oct-18 20:09N 33°43' W 118°16'0 0.0
2017-Oct-18 19:57N 33°43' W 118°16'0 0.0
2017-Oct-18 19:28N 33°43' W 118°16'0 0.0
2017-Oct-18 18:58N 33°43' W 118°16'0 0.0
2017-Oct-18 18:28N 33°43' W 118°16'0 0.0
2017-Oct-18 17:58N 33°43' W 118°16'0 0.0
2017-Oct-18 17:22N 33°43' W 118°16'0 0.0
2017-Oct-18 16:34N 33°43' W 118°16'0 0.0
2017-Oct-18 16:22N 33°43' W 118°16'0 0.0
2017-Oct-18 15:15N 33°43' W 118°16'1 3.6
2017-Oct-18 14:59N 33°43' W 118°15'9 6.1
2017-Oct-18 13:34N 33°37' W 118°23'1 8.6
2017-Oct-18 13:30N 33°38' W 118°24'11 8.1
2017-Oct-18 12:12N 33°43' W 118°35'2 8.0
2017-Oct-18 11:59N 33°44' W 118°37'4 8.0
2017-Oct-18 11:30N 33°46' W 118°41'4 7.9
2017-Oct-18 10:58N 33°48' W 118°45'4 7.9
2017-Oct-18 10:30N 33°50' W 118°49'4 8.1
2017-Oct-18 10:00N 33°52' W 118°53'4 8.1
2017-Oct-18 09:30N 33°53' W 118°58'4 8.2
2017-Oct-18 08:58N 33°56' W 119°02'4 8.2
2017-Oct-18 08:27N 33°58' W 119°06'4 8.1
2017-Oct-18 08:00N 33°60' W 119°10'4 8.3
2017-Oct-18 07:30N 34°02' W 119°15'5 9.2
2017-Oct-18 06:57N 34°03' W 119°21'4 9.3
2017-Oct-18 06:30N 34°04' W 119°25'5 9.4
2017-Oct-18 05:58N 34°06' W 119°31'510.0
2017-Oct-18 05:29N 34°07' W 119°37'510.8
2017-Oct-18 05:00N 34°08' W 119°43'611.4
2017-Oct-18 04:30N 34°10' W 119°50'611.3
2017-Oct-18 04:00N 34°12' W 119°56'511.0
2017-Oct-18 03:30N 34°13' W 120°02'611.0
2017-Oct-18 02:59N 34°15' W 120°09'511.1
2017-Oct-18 02:31N 34°16' W 120°15'611.2
2017-Oct-18 02:00N 34°17' W 120°22'611.2
2017-Oct-18 01:31N 34°19' W 120°28'510.9
2017-Oct-18 01:00N 34°20' W 120°35'510.4
2017-Oct-18 00:31N 34°22' W 120°41'510.4
2017-Oct-18 00:00N 34°23' W 120°47'510.6
2017-Oct-17 23:30N 34°25' W 120°53'510.4
2017-Oct-17 23:00N 34°28' W 120°58'612.2
2017-Oct-17 22:30N 34°34' W 121°00'611.8
2017-Oct-17 22:00N 34°39' W 121°03'611.3
2017-Oct-17 21:30N 34°45' W 121°05'611.4
2017-Oct-17 21:00N 34°50' W 121°07'611.2
2017-Oct-17 20:30N 34°55' W 121°10'611.6
2017-Oct-17 20:00N 35°01' W 121°12'611.5
2017-Oct-17 19:30N 35°06' W 121°15'611.2
2017-Oct-17 19:00N 35°11' W 121°17'611.4
2017-Oct-17 18:30N 35°17' W 121°20'611.3
2017-Oct-17 18:00N 35°22' W 121°22'611.2
2017-Oct-17 17:26N 35°27' W 121°27'2510.0
2017-Oct-17 14:53N 35°49' W 121°43'410.6
2017-Oct-17 14:30N 35°52' W 121°46'611.0
2017-Oct-17 13:59N 35°56' W 121°51'7811.0
2017-Oct-17 06:54N 37°06' W 122°35'411.1
2017-Oct-17 06:30N 37°09' W 122°39'510.5
2017-Oct-17 06:00N 37°13' W 122°43'610.9
2017-Oct-17 05:30N 37°19' W 122°44'611.2
2017-Oct-17 05:01N 37°24' W 122°44'611.4
2017-Oct-17 04:31N 37°30' W 122°44'611.3
2017-Oct-17 04:00N 37°36' W 122°44'611.3
2017-Oct-17 03:31N 37°41' W 122°43'5 9.6
2017-Oct-17 03:01N 37°45' W 122°39'510.0
2017-Oct-17 02:30N 37°47' W 122°33'4 9.0
2017-Oct-17 02:00N 37°49' W 122°28'4 8.0
2017-Oct-17 01:31N 37°49' W 122°23'2 2.9
2017-Oct-17 01:00N 37°49' W 122°22'0 0.0
2017-Oct-17 00:30N 37°49' W 122°22'0 0.0
2017-Oct-17 00:00N 37°49' W 122°22'0 0.0
2017-Oct-16 23:30N 37°49' W 122°22'0 0.0
2017-Oct-16 22:59N 37°49' W 122°22'0 0.0
2017-Oct-16 22:29N 37°49' W 122°22'0 0.0
2017-Oct-16 21:58N 37°49' W 122°22'0 0.0
2017-Oct-16 21:28N 37°49' W 122°22'0 0.0
2017-Oct-16 21:00N 37°49' W 122°22'0 0.0
2017-Oct-16 20:30N 37°49' W 122°22'0 0.0
2017-Oct-16 19:59N 37°49' W 122°22'0 0.0
2017-Oct-16 19:29N 37°49' W 122°22'0 0.0
2017-Oct-16 18:58N 37°49' W 122°22'0 0.0
2017-Oct-16 18:25N 37°49' W 122°22'0 0.0
2017-Oct-16 17:55N 37°49' W 122°22'0 0.0
2017-Oct-16 17:25N 37°49' W 122°22'0 0.0
2017-Oct-16 16:58N 37°49' W 122°22'0 0.0
2017-Oct-16 16:28N 37°49' W 122°22'0 0.0
2017-Oct-16 15:52N 37°49' W 122°22'0 0.0
2017-Oct-16 15:28N 37°49' W 122°22'0 0.0
2017-Oct-16 14:58N 37°49' W 122°22'0 0.0
2017-Oct-16 14:28N 37°49' W 122°22'0 0.0
2017-Oct-16 13:28N 37°49' W 122°22'0 0.0
2017-Oct-16 12:58N 37°49' W 122°22'0 0.0
2017-Oct-16 12:28N 37°49' W 122°22'0 0.0
2017-Oct-16 11:58N 37°49' W 122°22'0 0.0
2017-Oct-16 11:28N 37°49' W 122°22'0 0.0
2017-Oct-16 10:58N 37°49' W 122°22'0 0.0
2017-Oct-16 10:31N 37°49' W 122°22'0 0.0
2017-Oct-16 09:55N 37°49' W 122°22'0 0.0
2017-Oct-16 09:28N 37°49' W 122°22'0 0.0
2017-Oct-16 08:58N 37°49' W 122°22'0 0.0
2017-Oct-16 08:28N 37°49' W 122°22'0 0.0
2017-Oct-16 07:58N 37°49' W 122°22'0 0.0
2017-Oct-16 07:28N 37°49' W 122°22'0 0.0
2017-Oct-16 06:58N 37°49' W 122°22'0 0.0
2017-Oct-16 06:28N 37°49' W 122°22'0 0.0
2017-Oct-16 05:58N 37°49' W 122°22'0 0.0
2017-Oct-16 05:28N 37°49' W 122°22'0 0.0
2017-Oct-16 04:58N 37°49' W 122°22'0 0.0
2017-Oct-16 04:28N 37°49' W 122°22'0 0.0
2017-Oct-16 03:58N 37°49' W 122°22'0 0.0
2017-Oct-16 03:28N 37°49' W 122°22'0 0.0
2017-Oct-16 02:58N 37°49' W 122°22'0 0.0
2017-Oct-16 02:28N 37°49' W 122°22'0 0.0
2017-Oct-16 01:58N 37°49' W 122°22'0 0.0
2017-Oct-16 01:25N 37°49' W 122°22'0 0.0
2017-Oct-16 00:58N 37°49' W 122°22'0 0.0
2017-Oct-16 00:28N 37°49' W 122°22'0 0.0
2017-Oct-15 23:56N 37°49' W 122°22'0 0.0
2017-Oct-15 23:28N 37°49' W 122°22'0 0.0
2017-Oct-15 22:58N 37°49' W 122°22'0 0.0
2017-Oct-15 22:25N 37°49' W 122°22'0 0.0
2017-Oct-15 21:58N 37°49' W 122°22'0 0.0
2017-Oct-15 21:28N 37°49' W 122°22'0 0.0
2017-Oct-15 20:58N 37°49' W 122°22'0 0.0
2017-Oct-15 20:28N 37°49' W 122°22'0 0.0
2017-Oct-15 19:52N 37°49' W 122°22'0 0.0
2017-Oct-15 19:22N 37°49' W 122°22'0 0.0
2017-Oct-15 18:58N 37°49' W 122°22'0 0.0
2017-Oct-15 18:28N 37°49' W 122°22'0 0.0
2017-Oct-15 17:58N 37°49' W 122°22'0 0.0
2017-Oct-15 17:28N 37°49' W 122°22'0 0.0
2017-Oct-15 16:55N 37°49' W 122°22'0 0.0
2017-Oct-15 16:28N 37°49' W 122°22'0 0.0
2017-Oct-15 15:58N 37°49' W 122°22'0 0.0
2017-Oct-15 15:19N 37°49' W 122°22'0 0.0
2017-Oct-15 14:58N 37°49' W 122°22'0 0.0
2017-Oct-15 13:49N 37°49' W 122°22'0 0.0
2017-Oct-15 13:28N 37°49' W 122°22'0 0.0
2017-Oct-15 12:56N 37°49' W 122°22'0 0.0
2017-Oct-15 12:28N 37°49' W 122°22'0 0.0
2017-Oct-15 11:58N 37°49' W 122°22'0 0.0
2017-Oct-15 11:28N 37°49' W 122°22'0 0.0
2017-Oct-15 10:55N 37°49' W 122°22'0 0.0
2017-Oct-15 10:28N 37°49' W 122°22'0 0.0
2017-Oct-15 09:49N 37°49' W 122°22'0 0.0
2017-Oct-15 09:22N 37°49' W 122°22'0 0.0
2017-Oct-15 08:58N 37°49' W 122°22'0 0.0
2017-Oct-15 08:28N 37°49' W 122°22'0 0.0
2017-Oct-15 07:58N 37°49' W 122°22'0 0.0
2017-Oct-15 07:28N 37°49' W 122°22'0 0.0
2017-Oct-15 06:58N 37°49' W 122°22'0 0.0
2017-Oct-15 06:29N 37°49' W 122°22'0 0.0
2017-Oct-15 05:58N 37°49' W 122°22'0 0.0
2017-Oct-15 05:28N 37°49' W 122°22'0 0.0
2017-Oct-15 04:58N 37°49' W 122°22'0 0.0
2017-Oct-15 04:28N 37°49' W 122°22'0 0.0
2017-Oct-15 03:58N 37°49' W 122°22'0 0.0
2017-Oct-15 03:28N 37°49' W 122°22'0 0.0
2017-Oct-15 02:56N 37°49' W 122°22'0 0.0
2017-Oct-15 02:28N 37°49' W 122°22'0 0.0
2017-Oct-15 01:58N 37°49' W 122°22'0 0.0
2017-Oct-15 01:28N 37°49' W 122°22'0 0.0
2017-Oct-15 00:58N 37°49' W 122°22'0 0.0
2017-Oct-15 00:28N 37°49' W 122°22'0 0.0
2017-Oct-14 23:52N 37°49' W 122°22'0 0.0
2017-Oct-14 23:28N 37°49' W 122°22'0 0.0
2017-Oct-14 22:58N 37°49' W 122°22'0 0.0
2017-Oct-14 22:28N 37°49' W 122°22'0 0.0
2017-Oct-14 21:59N 37°49' W 122°22'0 0.0
2017-Oct-14 21:28N 37°49' W 122°22'0 0.0
2017-Oct-14 20:58N 37°49' W 122°22'0 0.0
2017-Oct-14 20:28N 37°49' W 122°22'0 0.0
2017-Oct-14 19:58N 37°49' W 122°22'0 0.0
2017-Oct-14 19:25N 37°49' W 122°22'0 0.0
2017-Oct-14 18:58N 37°49' W 122°22'0 0.0
2017-Oct-14 18:28N 37°49' W 122°22'0 0.0
2017-Oct-14 17:58N 37°49' W 122°22'0 0.0
2017-Oct-14 17:28N 37°49' W 122°22'0 0.0
2017-Oct-14 16:58N 37°49' W 122°22'0 0.0
2017-Oct-14 16:25N 37°49' W 122°22'0 0.0
2017-Oct-14 15:52N 37°49' W 122°22'0 0.0
2017-Oct-14 15:25N 37°49' W 122°22'0 0.0
2017-Oct-14 14:59N 37°49' W 122°22'0 0.0
2017-Oct-14 14:29N 37°49' W 122°22'0 0.0
2017-Oct-14 13:58N 37°49' W 122°22'0 0.0
2017-Oct-14 13:25N 37°49' W 122°22'0 0.0
2017-Oct-14 12:58N 37°49' W 122°22'0 0.0
2017-Oct-14 12:28N 37°49' W 122°22'0 0.0
2017-Oct-14 11:58N 37°49' W 122°22'0 0.0
2017-Oct-14 11:28N 37°49' W 122°22'0 0.0
2017-Oct-14 10:55N 37°49' W 122°22'0 0.0
2017-Oct-14 10:28N 37°49' W 122°22'0 0.0
2017-Oct-14 09:55N 37°49' W 122°22'0 0.0
2017-Oct-14 09:28N 37°49' W 122°22'0 0.0
2017-Oct-14 08:58N 37°49' W 122°22'0 0.0
2017-Oct-14 08:28N 37°49' W 122°22'0 0.0
2017-Oct-14 07:58N 37°49' W 122°22'0 0.0
2017-Oct-14 07:28N 37°49' W 122°22'0 0.0
2017-Oct-14 06:58N 37°49' W 122°22'0 0.0
2017-Oct-14 06:28N 37°49' W 122°22'0 0.0
2017-Oct-14 05:58N 37°49' W 122°22'0 0.0
2017-Oct-14 05:28N 37°49' W 122°22'0 0.0
2017-Oct-14 04:58N 37°49' W 122°22'0 0.0
2017-Oct-14 04:28N 37°49' W 122°22'0 0.0
2017-Oct-14 03:55N 37°49' W 122°22'0 0.0
2017-Oct-14 03:22N 37°49' W 122°22'0 0.0
2017-Oct-14 02:58N 37°49' W 122°22'0 0.0
2017-Oct-14 02:28N 37°49' W 122°22'0 0.0
2017-Oct-14 01:58N 37°49' W 122°22'0 0.0
2017-Oct-14 01:28N 37°49' W 122°22'0 0.0
2017-Oct-14 00:58N 37°49' W 122°22'0 0.0
2017-Oct-14 00:29N 37°49' W 122°22'0 0.0
2017-Oct-13 23:59N 37°49' W 122°22'0 0.0
2017-Oct-13 23:20N 37°49' W 122°22'0 0.0
2017-Oct-13 22:59N 37°49' W 122°22'0 0.0
2017-Oct-13 22:28N 37°49' W 122°22'0 0.0
2017-Oct-13 21:58N 37°49' W 122°22'0 0.0
2017-Oct-13 21:25N 37°49' W 122°22'0 0.0
2017-Oct-13 20:55N 37°49' W 122°22'0 0.0
2017-Oct-13 20:28N 37°49' W 122°22'0 0.0
2017-Oct-13 19:58N 37°49' W 122°22'0 0.0
2017-Oct-13 19:28N 37°49' W 122°22'0 0.0
2017-Oct-13 18:55N 37°49' W 122°22'0 0.0
2017-Oct-13 18:28N 37°49' W 122°22'0 0.0
2017-Oct-13 17:58N 37°49' W 122°22'0 0.0
2017-Oct-13 17:25N 37°49' W 122°22'0 0.0
2017-Oct-13 16:58N 37°49' W 122°22'0 0.0
2017-Oct-13 16:25N 37°49' W 122°22'0 0.0
2017-Oct-13 15:58N 37°49' W 122°22'0 0.0
2017-Oct-13 15:29N 37°49' W 122°22'0 0.0
2017-Oct-13 14:56N 37°49' W 122°22'0 0.0
2017-Oct-13 14:26N 37°49' W 122°22'0 0.0
2017-Oct-13 13:59N 37°49' W 122°22'0 0.0
2017-Oct-13 13:19N 37°49' W 122°22'0 0.0
2017-Oct-13 12:58N 37°49' W 122°22'0 0.0
2017-Oct-13 12:28N 37°49' W 122°22'0 0.0
2017-Oct-13 11:58N 37°49' W 122°22'0 0.0
2017-Oct-13 11:28N 37°49' W 122°22'0 0.0
2017-Oct-13 10:58N 37°49' W 122°22'0 0.0
2017-Oct-13 10:28N 37°49' W 122°22'0 0.0
2017-Oct-13 09:58N 37°49' W 122°22'0 0.0
2017-Oct-13 09:28N 37°49' W 122°22'0 0.0
2017-Oct-13 08:58N 37°49' W 122°22'0 0.0
2017-Oct-13 08:22N 37°49' W 122°22'0 0.0
2017-Oct-13 07:58N 37°49' W 122°22'0 0.0
2017-Oct-13 07:28N 37°49' W 122°22'0 0.0
2017-Oct-13 06:58N 37°49' W 122°22'0 0.0
2017-Oct-13 06:28N 37°49' W 122°22'0 0.0
2017-Oct-13 05:59N 37°49' W 122°22'0 0.0
2017-Oct-13 05:29N 37°49' W 122°22'0 0.0
2017-Oct-13 04:55N 37°49' W 122°22'0 0.0
2017-Oct-13 04:28N 37°49' W 122°22'0 0.0
2017-Oct-13 03:58N 37°49' W 122°22'0 0.0
2017-Oct-13 03:28N 37°49' W 122°22'0 0.0
2017-Oct-13 02:55N 37°49' W 122°22'0 0.0
2017-Oct-13 02:28N 37°49' W 122°22'0 0.0
2017-Oct-13 01:58N 37°49' W 122°22'0 0.0
2017-Oct-13 01:28N 37°49' W 122°22'0 0.0
2017-Oct-13 00:58N 37°49' W 122°22'0 0.0
2017-Oct-13 00:28N 37°49' W 122°22'0 0.0
2017-Oct-12 23:58N 37°49' W 122°22'0 0.0
2017-Oct-12 23:28N 37°49' W 122°22'0 0.0
2017-Oct-12 22:52N 37°49' W 122°22'0 0.0
2017-Oct-12 22:28N 37°49' W 122°22'0 0.0
2017-Oct-12 21:56N 37°49' W 122°22'0 0.0
2017-Oct-12 21:20N 37°49' W 122°22'0 0.0
2017-Oct-12 20:59N 37°49' W 122°22'0 0.0
2017-Oct-12 20:29N 37°49' W 122°22'0 0.0
2017-Oct-12 19:58N 37°49' W 122°22'0 0.0
2017-Oct-12 19:28N 37°49' W 122°22'0 0.0
2017-Oct-12 18:58N 37°49' W 122°22'0 0.0
2017-Oct-12 18:28N 37°49' W 122°22'0 0.0
2017-Oct-12 17:58N 37°49' W 122°22'0 0.0
2017-Oct-12 17:28N 37°49' W 122°22'0 0.0
2017-Oct-12 16:58N 37°49' W 122°22'0 0.0
2017-Oct-12 16:27N 37°49' W 122°22'0 0.0
2017-Oct-12 15:57N 37°49' W 122°22'0 0.0
2017-Oct-12 15:21N 37°49' W 122°22'0 0.0
2017-Oct-12 14:59N 37°49' W 122°22'0 0.0
2017-Oct-12 14:29N 37°49' W 122°22'0 0.0
2017-Oct-12 13:59N 37°49' W 122°22'0 0.0
2017-Oct-12 13:29N 37°49' W 122°22'0 0.0
2017-Oct-12 12:59N 37°49' W 122°22'0 0.0
2017-Oct-12 12:29N 37°49' W 122°22'0 0.0
2017-Oct-12 12:00N 37°49' W 122°22'0 0.0
2017-Oct-12 11:30N 37°49' W 122°22'0 0.0
2017-Oct-12 11:00N 37°49' W 122°22'0 0.0
2017-Oct-12 10:30N 37°49' W 122°22'0 0.0
2017-Oct-12 10:00N 37°49' W 122°22'0 0.0
2017-Oct-12 09:30N 37°49' W 122°22'0 0.0
2017-Oct-12 08:59N 37°49' W 122°22'0 0.0
2017-Oct-12 08:29N 37°49' W 122°22'0 0.0
2017-Oct-12 07:59N 37°49' W 122°22'0 0.0
2017-Oct-12 07:29N 37°49' W 122°22'0 0.0
2017-Oct-12 06:59N 37°49' W 122°22'0 0.0
2017-Oct-12 06:29N 37°49' W 122°22'0 0.0
2017-Oct-12 05:59N 37°49' W 122°22'0 0.0
2017-Oct-12 05:29N 37°49' W 122°22'0 0.0
2017-Oct-12 04:56N 37°49' W 122°22'0 0.0
2017-Oct-12 04:29N 37°49' W 122°22'0 0.0
2017-Oct-12 03:59N 37°49' W 122°22'0 0.0
2017-Oct-12 03:26N 37°49' W 122°22'0 0.0
2017-Oct-12 03:00N 37°49' W 122°22'0 0.0
2017-Oct-12 02:24N 37°49' W 122°22'0 0.0
2017-Oct-12 02:00N 37°49' W 122°22'0 0.0
2017-Oct-12 01:30N 37°49' W 122°22'0 0.0
2017-Oct-12 01:00N 37°49' W 122°22'0 0.0
2017-Oct-12 00:30N 37°49' W 122°22'0 0.0
2017-Oct-12 00:00N 37°49' W 122°22'0 0.0
2017-Oct-11 23:30N 37°49' W 122°22'0 0.0
2017-Oct-11 23:00N 37°49' W 122°22'0 0.0
2017-Oct-11 22:29N 37°49' W 122°22'0 0.0
2017-Oct-11 21:59N 37°49' W 122°22'1 1.9
2017-Oct-11 21:31N 37°49' W 122°22'510.8
2017-Oct-11 21:01N 37°54' W 122°26'5 9.9
2017-Oct-11 20:30N 37°59' W 122°26'3 5.0
2017-Oct-11 20:00N 38°01' W 122°24'0 0.0
2017-Oct-11 19:30N 38°01' W 122°24'0 0.5
2017-Oct-11 19:00N 38°01' W 122°24'2 3.4
2017-Oct-11 18:30N 38°02' W 122°22'0 0.0
2017-Oct-11 18:00N 38°02' W 122°22'0 0.0
2017-Oct-11 17:30N 38°02' W 122°22'2 3.5
2017-Oct-11 16:59N 38°01' W 122°24'12 0.7
2017-Oct-11 00:00N 37°49' W 122°22'0 0.0
2017-Oct-10 23:18N 37°49' W 122°22'0 0.0
2017-Oct-10 23:00N 37°49' W 122°22'0 0.0
2017-Oct-10 22:30N 37°49' W 122°22'0 0.0
2017-Oct-10 21:57N 37°49' W 122°22'0 0.0
2017-Oct-10 21:30N 37°49' W 122°22'0 0.0
2017-Oct-10 20:58N 37°49' W 122°22'0 0.0
2017-Oct-10 20:30N 37°49' W 122°22'0 0.0
2017-Oct-10 20:00N 37°49' W 122°22'0 0.0
2017-Oct-10 19:28N 37°49' W 122°22'0 0.0
2017-Oct-10 18:58N 37°49' W 122°22'0 0.0
2017-Oct-10 18:28N 37°49' W 122°22'0 0.0
2017-Oct-10 17:52N 37°49' W 122°22'0 0.0
2017-Oct-10 17:25N 37°49' W 122°22'0 0.0
2017-Oct-10 16:49N 37°49' W 122°22'0 0.0
2017-Oct-10 16:28N 37°49' W 122°22'0 0.0
2017-Oct-10 15:58N 37°49' W 122°22'0 0.0
2017-Oct-10 15:30N 37°49' W 122°22'0 0.0
2017-Oct-10 15:00N 37°49' W 122°22'0 0.0
2017-Oct-10 14:00N 37°49' W 122°22'0 0.0
2017-Oct-10 13:24N 37°49' W 122°22'0 0.0
2017-Oct-10 13:00N 37°49' W 122°22'0 0.0
2017-Oct-10 12:27N 37°49' W 122°22'0 0.0
2017-Oct-10 11:57N 37°49' W 122°22'0 0.0
2017-Oct-10 11:27N 37°49' W 122°22'0 0.0
2017-Oct-10 10:58N 37°49' W 122°22'0 0.0
2017-Oct-10 10:28N 37°49' W 122°22'0 0.0
2017-Oct-10 09:58N 37°49' W 122°22'0 0.0
2017-Oct-10 09:28N 37°49' W 122°22'0 0.0
2017-Oct-10 08:55N 37°49' W 122°22'0 0.0
2017-Oct-10 08:28N 37°49' W 122°22'0 0.0
2017-Oct-10 07:55N 37°49' W 122°22'0 0.0
2017-Oct-10 07:28N 37°49' W 122°22'0 0.0
2017-Oct-10 06:58N 37°49' W 122°22'0 0.0
2017-Oct-10 06:30N 37°49' W 122°22'0 0.0
2017-Oct-10 05:58N 37°49' W 122°22'0 0.0
2017-Oct-10 05:30N 37°49' W 122°22'0 0.0
2017-Oct-10 04:58N 37°49' W 122°22'0 0.0
2017-Oct-10 04:30N 37°49' W 122°22'0 0.0
2017-Oct-10 03:54N 37°49' W 122°22'0 0.0
2017-Oct-10 03:30N 37°49' W 122°22'0 0.0
2017-Oct-10 02:58N 37°49' W 122°22'0 0.0
2017-Oct-10 02:30N 37°49' W 122°22'0 0.0
2017-Oct-10 01:55N 37°49' W 122°22'0 0.0
2017-Oct-10 01:27N 37°49' W 122°22'0 0.0
2017-Oct-10 00:57N 37°49' W 122°22'0 0.0
2017-Oct-10 00:27N 37°49' W 122°22'0 0.0
2017-Oct-09 23:55N 37°49' W 122°22'0 0.0
2017-Oct-09 23:25N 37°49' W 122°22'0 0.0
2017-Oct-09 22:55N 37°49' W 122°22'0 0.0
2017-Oct-09 22:28N 37°49' W 122°22'0 0.0
2017-Oct-09 21:52N 37°49' W 122°22'0 0.0
2017-Oct-09 21:28N 37°49' W 122°22'0 0.2
2017-Oct-09 21:00N 37°49' W 122°22'3 6.4
2017-Oct-09 20:30N 37°49' W 122°26'0 0.0
2017-Oct-09 20:01N 37°49' W 122°26'0 0.9
2017-Oct-09 19:30N 37°49' W 122°26'1 1.1
2017-Oct-09 19:00N 37°49' W 122°27'0 1.0
2017-Oct-09 18:30N 37°49' W 122°27'0 0.0
2017-Oct-09 18:00N 37°49' W 122°27'2 4.0
2017-Oct-09 17:30N 37°49' W 122°24'0 0.0
2017-Oct-09 17:00N 37°49' W 122°24'1 1.0
2017-Oct-09 16:30N 37°49' W 122°24'0 0.0
2017-Oct-09 16:00N 37°49' W 122°24'0 0.3
2017-Oct-09 15:31N 37°49' W 122°24'2 3.9
2017-Oct-09 14:58N 37°49' W 122°22'0 0.0
2017-Oct-09 14:30N 37°49' W 122°22'0 0.0
2017-Oct-09 14:00N 37°49' W 122°22'0 0.0
2017-Oct-09 13:27N 37°49' W 122°22'0 0.0
2017-Oct-09 12:57N 37°49' W 122°22'0 0.0
2017-Oct-09 12:27N 37°49' W 122°22'0 0.0
2017-Oct-09 11:57N 37°49' W 122°22'0 0.0
2017-Oct-09 11:27N 37°49' W 122°22'0 0.0
2017-Oct-09 10:57N 37°49' W 122°22'0 0.0
2017-Oct-09 10:28N 37°49' W 122°22'0 0.0
2017-Oct-09 09:58N 37°49' W 122°22'0 0.0
2017-Oct-09 09:28N 37°49' W 122°22'0 0.0
2017-Oct-09 08:58N 37°49' W 122°22'0 0.0
2017-Oct-09 08:30N 37°49' W 122°22'  

Dump ship's entire track history